Terminal Aerodrome Forecast
Issued by NWS

Home | Current Version | Previous Version | Text Only | Print | Product List | Glossary On
Versions: 1 2 3 4 5 6 7 8 9 10 11 12 13 14 15 16 17 18
000
FTUS45 KABQ 200500
TAFTCC
TAF
KTCC 200538Z 2006/2106 25007KT P6SM SCT070 BKN100
     FM201100 VRB06KT P6SM OVC025
     FM201500 06006KT P6SM SCT025 SCT100
     FM202000 13006KT P6SM SCT070 SCT130
      AMD NOT SKED=

USA.gov is the U.S. government's official web portal to all federal, state and local government web resources and services.